sensor_id;sensor_type;location;lat;lon;timestamp;P1;durP1;ratioP1;P2;durP2;ratioP2
10805;SDS011;5455;53.224;6.000;2023-02-15T00:01:47;16.00;;;10.83;;
10805;SDS011;5455;53.224;6.000;2023-02-15T00:04:16;15.67;;;10.57;;
10805;SDS011;5455;53.224;6.000;2023-02-15T00:06:44;18.83;;;11.40;;
10805;SDS011;5455;53.224;6.000;2023-02-15T00:09:11;16.70;;;11.13;;
10805;SDS011;5455;53.224;6.000;2023-02-15T00:11:38;15.20;;;10.23;;
10805;SDS011;5455;53.224;6.000;2023-02-15T00:14:13;19.03;;;11.87;;
10805;SDS011;5455;53.224;6.000;2023-02-15T00:16:47;19.23;;;12.47;;
10805;SDS011;5455;53.224;6.000;2023-02-15T00:19:16;21.30;;;13.27;;
10805;SDS011;5455;53.224;6.000;2023-02-15T00:21:44;16.43;;;11.87;;
10805;SDS011;5455;53.224;6.000;2023-02-15T00:24:13;16.43;;;11.57;;
10805;SDS011;5455;53.224;6.000;2023-02-15T00:26:42;15.37;;;11.80;;
10805;SDS011;5455;53.224;6.000;2023-02-15T00:29:10;14.33;;;11.50;;
10805;SDS011;5455;53.224;6.000;2023-02-15T00:31:38;15.13;;;11.30;;
10805;SDS011;5455;53.224;6.000;2023-02-15T00:34:28;15.37;;;10.93;;
10805;SDS011;5455;53.224;6.000;2023-02-15T00:36:55;15.73;;;11.43;;
10805;SDS011;5455;53.224;6.000;2023-02-15T00:39:23;14.80;;;10.90;;
10805;SDS011;5455;53.224;6.000;2023-02-15T00:41:50;13.37;;;11.13;;
10805;SDS011;5455;53.224;6.000;2023-02-15T00:44:17;16.33;;;11.83;;
10805;SDS011;5455;53.224;6.000;2023-02-15T00:46:44;15.13;;;12.20;;
10805;SDS011;5455;53.224;6.000;2023-02-15T00:49:11;15.77;;;12.70;;
10805;SDS011;5455;53.224;6.000;2023-02-15T00:51:38;15.73;;;11.83;;
10805;SDS011;5455;53.224;6.000;2023-02-15T00:54:06;17.73;;;12.83;;
10805;SDS011;5455;53.224;6.000;2023-02-15T00:56:33;14.17;;;11.57;;
10805;SDS011;5455;53.224;6.000;2023-02-15T00:59:00;13.70;;;11.87;;
10805;SDS011;5455;53.224;6.000;2023-02-15T01:01:27;14.77;;;10.60;;
10805;SDS011;5455;53.224;6.000;2023-02-15T01:03:54;12.67;;;9.90;;
10805;SDS011;5455;53.224;6.000;2023-02-15T01:06:22;13.50;;;11.23;;
10805;SDS011;5455;53.224;6.000;2023-02-15T01:08:49;12.70;;;10.80;;
10805;SDS011;5455;53.224;6.000;2023-02-15T01:11:17;12.30;;;11.00;;
10805;SDS011;5455;53.224;6.000;2023-02-15T01:13:54;12.00;;;10.70;;
10805;SDS011;5455;53.224;6.000;2023-02-15T01:16:23;11.43;;;9.87;;
10805;SDS011;5455;53.224;6.000;2023-02-15T01:18:52;13.10;;;11.00;;
10805;SDS011;5455;53.224;6.000;2023-02-15T01:21:22;13.37;;;11.30;;
10805;SDS011;5455;53.224;6.000;2023-02-15T01:23:53;12.27;;;10.93;;
10805;SDS011;5455;53.224;6.000;2023-02-15T01:26:20;12.60;;;10.43;;
10805;SDS011;5455;53.224;6.000;2023-02-15T01:28:47;12.03;;;10.73;;
10805;SDS011;5455;53.224;6.000;2023-02-15T01:31:17;12.90;;;10.93;;
10805;SDS011;5455;53.224;6.000;2023-02-15T01:33:47;12.73;;;11.20;;
10805;SDS011;5455;53.224;6.000;2023-02-15T01:36:14;13.30;;;11.67;;
10805;SDS011;5455;53.224;6.000;2023-02-15T01:38:41;15.13;;;11.60;;
10805;SDS011;5455;53.224;6.000;2023-02-15T01:41:08;15.37;;;11.73;;
10805;SDS011;5455;53.224;6.000;2023-02-15T01:43:59;19.13;;;12.60;;
10805;SDS011;5455;53.224;6.000;2023-02-15T01:46:35;15.00;;;11.63;;
10805;SDS011;5455;53.224;6.000;2023-02-15T01:49:16;13.63;;;10.70;;
10805;SDS011;5455;53.224;6.000;2023-02-15T01:51:47;14.47;;;11.50;;
10805;SDS011;5455;53.224;6.000;2023-02-15T01:54:21;15.67;;;12.23;;
10805;SDS011;5455;53.224;6.000;2023-02-15T01:56:52;16.93;;;12.47;;
10805;SDS011;5455;53.224;6.000;2023-02-15T01:59:24;13.70;;;10.97;;
10805;SDS011;5455;53.224;6.000;2023-02-15T02:01:52;13.93;;;11.07;;
10805;SDS011;5455;53.224;6.000;2023-02-15T02:07:00;17.03;;;11.83;;
10805;SDS011;5455;53.224;6.000;2023-02-15T02:09:30;17.90;;;11.97;;
10805;SDS011;5455;53.224;6.000;2023-02-15T02:11:58;17.13;;;12.63;;
10805;SDS011;5455;53.224;6.000;2023-02-15T02:14:26;16.40;;;12.60;;
10805;SDS011;5455;53.224;6.000;2023-02-15T02:30:56;22.43;;;14.80;;
10805;SDS011;5455;53.224;6.000;2023-02-15T02:41:37;18.90;;;13.80;;
10805;SDS011;5455;53.224;6.000;2023-02-15T02:44:16;17.10;;;12.47;;
10805;SDS011;5455;53.224;6.000;2023-02-15T02:46:52;19.27;;;12.37;;
10805;SDS011;5455;53.224;6.000;2023-02-15T02:49:34;16.10;;;12.37;;
10805;SDS011;5455;53.224;6.000;2023-02-15T02:52:04;16.83;;;12.13;;
10805;SDS011;5455;53.224;6.000;2023-02-15T02:54:51;16.20;;;11.67;;
10805;SDS011;5455;53.224;6.000;2023-02-15T02:57:19;13.80;;;11.73;;
10805;SDS011;5455;53.224;6.000;2023-02-15T02:59:49;15.97;;;11.70;;
10805;SDS011;5455;53.224;6.000;2023-02-15T03:02:22;14.10;;;10.93;;
10805;SDS011;5455;53.224;6.000;2023-02-15T03:04:57;12.00;;;10.07;;
10805;SDS011;5455;53.224;6.000;2023-02-15T03:07:30;15.23;;;11.60;;
10805;SDS011;5455;53.224;6.000;2023-02-15T03:10:00;17.50;;;12.40;;
10805;SDS011;5455;53.224;6.000;2023-02-15T03:12:37;16.07;;;11.43;;
10805;SDS011;5455;53.224;6.000;2023-02-15T03:15:11;15.43;;;11.73;;
10805;SDS011;5455;53.224;6.000;2023-02-15T03:17:43;16.43;;;11.70;;
10805;SDS011;5455;53.224;6.000;2023-02-15T03:20:18;16.57;;;12.33;;
10805;SDS011;5455;53.224;6.000;2023-02-15T03:23:13;15.23;;;11.57;;
10805;SDS011;5455;53.224;6.000;2023-02-15T03:25:44;15.60;;;11.40;;
10805;SDS011;5455;53.224;6.000;2023-02-15T03:28:38;16.50;;;11.80;;
10805;SDS011;5455;53.224;6.000;2023-02-15T03:31:11;15.60;;;11.57;;
10805;SDS011;5455;53.224;6.000;2023-02-15T03:33:42;14.60;;;11.77;;
10805;SDS011;5455;53.224;6.000;2023-02-15T03:38:53;15.80;;;11.63;;
10805;SDS011;5455;53.224;6.000;2023-02-15T03:41:32;15.47;;;11.03;;
10805;SDS011;5455;53.224;6.000;2023-02-15T03:44:07;13.77;;;11.53;;
10805;SDS011;5455;53.224;6.000;2023-02-15T03:47:05;16.23;;;11.23;;
10805;SDS011;5455;53.224;6.000;2023-02-15T03:49:49;15.80;;;11.33;;
10805;SDS011;5455;53.224;6.000;2023-02-15T03:52:21;13.80;;;10.70;;
10805;SDS011;5455;53.224;6.000;2023-02-15T03:54:49;13.23;;;11.10;;
10805;SDS011;5455;53.224;6.000;2023-02-15T03:57:27;14.33;;;11.40;;
10805;SDS011;5455;53.224;6.000;2023-02-15T04:00:15;15.17;;;11.23;;
10805;SDS011;5455;53.224;6.000;2023-02-15T04:06:11;15.87;;;11.63;;
10805;SDS011;5455;53.224;6.000;2023-02-15T04:08:38;16.23;;;12.10;;
10805;SDS011;5455;53.224;6.000;2023-02-15T04:11:24;15.40;;;12.07;;
10805;SDS011;5455;53.224;6.000;2023-02-15T04:13:51;16.37;;;12.97;;
10805;SDS011;5455;53.224;6.000;2023-02-15T04:16:23;17.80;;;12.67;;
10805;SDS011;5455;53.224;6.000;2023-02-15T04:18:51;16.03;;;12.43;;
10805;SDS011;5455;53.224;6.000;2023-02-15T04:21:37;18.50;;;12.50;;
10805;SDS011;5455;53.224;6.000;2023-02-15T04:24:23;16.20;;;12.27;;
10805;SDS011;5455;53.224;6.000;2023-02-15T04:27:08;16.00;;;12.27;;
10805;SDS011;5455;53.224;6.000;2023-02-15T04:29:36;17.07;;;13.33;;
10805;SDS011;5455;53.224;6.000;2023-02-15T04:32:02;17.83;;;13.20;;
10805;SDS011;5455;53.224;6.000;2023-02-15T04:34:29;18.67;;;13.87;;
10805;SDS011;5455;53.224;6.000;2023-02-15T04:36:57;18.03;;;13.40;;
10805;SDS011;5455;53.224;6.000;2023-02-15T04:39:24;19.87;;;13.33;;
10805;SDS011;5455;53.224;6.000;2023-02-15T04:41:50;19.90;;;13.97;;
10805;SDS011;5455;53.224;6.000;2023-02-15T04:44:17;18.37;;;13.70;;
10805;SDS011;5455;53.224;6.000;2023-02-15T04:46:45;21.30;;;14.53;;
10805;SDS011;5455;53.224;6.000;2023-02-15T04:49:12;19.60;;;13.53;;
10805;SDS011;5455;53.224;6.000;2023-02-15T04:51:38;19.13;;;14.20;;
10805;SDS011;5455;53.224;6.000;2023-02-15T04:54:05;20.40;;;14.63;;
10805;SDS011;5455;53.224;6.000;2023-02-15T04:56:32;22.07;;;16.00;;
10805;SDS011;5455;53.224;6.000;2023-02-15T04:59:01;22.43;;;15.90;;
10805;SDS011;5455;53.224;6.000;2023-02-15T05:01:28;25.23;;;15.97;;
10805;SDS011;5455;53.224;6.000;2023-02-15T05:03:55;23.17;;;15.47;;
10805;SDS011;5455;53.224;6.000;2023-02-15T05:06:22;22.73;;;15.53;;
10805;SDS011;5455;53.224;6.000;2023-02-15T05:08:49;23.80;;;16.50;;
10805;SDS011;5455;53.224;6.000;2023-02-15T05:11:16;24.23;;;16.63;;
10805;SDS011;5455;53.224;6.000;2023-02-15T05:13:43;22.57;;;16.00;;
10805;SDS011;5455;53.224;6.000;2023-02-15T05:16:10;21.53;;;15.77;;
10805;SDS011;5455;53.224;6.000;2023-02-15T05:18:37;24.23;;;16.00;;
10805;SDS011;5455;53.224;6.000;2023-02-15T05:21:04;23.33;;;16.13;;
10805;SDS011;5455;53.224;6.000;2023-02-15T05:23:31;22.83;;;15.60;;
10805;SDS011;5455;53.224;6.000;2023-02-15T05:25:58;22.63;;;15.67;;
10805;SDS011;5455;53.224;6.000;2023-02-15T05:28:44;23.87;;;16.23;;
10805;SDS011;5455;53.224;6.000;2023-02-15T05:31:12;20.87;;;15.63;;
10805;SDS011;5455;53.224;6.000;2023-02-15T05:33:42;25.80;;;16.30;;
10805;SDS011;5455;53.224;6.000;2023-02-15T05:36:10;23.23;;;15.83;;
10805;SDS011;5455;53.224;6.000;2023-02-15T05:38:37;23.77;;;16.27;;
10805;SDS011;5455;53.224;6.000;2023-02-15T05:41:08;25.53;;;16.63;;
10805;SDS011;5455;53.224;6.000;2023-02-15T05:43:36;22.97;;;16.40;;
10805;SDS011;5455;53.224;6.000;2023-02-15T05:46:04;23.93;;;16.87;;
10805;SDS011;5455;53.224;6.000;2023-02-15T05:48:31;22.40;;;15.93;;
10805;SDS011;5455;53.224;6.000;2023-02-15T05:51:07;22.63;;;16.37;;
10805;SDS011;5455;53.224;6.000;2023-02-15T05:53:36;25.07;;;16.53;;
10805;SDS011;5455;53.224;6.000;2023-02-15T05:56:04;24.27;;;16.83;;
10805;SDS011;5455;53.224;6.000;2023-02-15T05:58:37;25.20;;;16.40;;
10805;SDS011;5455;53.224;6.000;2023-02-15T06:03:44;22.67;;;16.03;;
10805;SDS011;5455;53.224;6.000;2023-02-15T06:06:12;25.17;;;15.23;;
10805;SDS011;5455;53.224;6.000;2023-02-15T06:08:39;22.80;;;15.33;;
10805;SDS011;5455;53.224;6.000;2023-02-15T06:11:06;23.73;;;15.80;;
10805;SDS011;5455;53.224;6.000;2023-02-15T06:13:34;23.90;;;15.70;;
10805;SDS011;5455;53.224;6.000;2023-02-15T06:16:04;23.43;;;15.00;;
10805;SDS011;5455;53.224;6.000;2023-02-15T06:18:32;23.50;;;16.17;;
10805;SDS011;5455;53.224;6.000;2023-02-15T06:20:59;23.13;;;16.20;;
10805;SDS011;5455;53.224;6.000;2023-02-15T06:23:26;26.07;;;16.73;;
10805;SDS011;5455;53.224;6.000;2023-02-15T06:25:53;23.63;;;16.13;;
10805;SDS011;5455;53.224;6.000;2023-02-15T06:28:20;25.93;;;16.60;;
10805;SDS011;5455;53.224;6.000;2023-02-15T06:30:46;22.47;;;15.87;;
10805;SDS011;5455;53.224;6.000;2023-02-15T06:33:13;24.60;;;17.10;;
10805;SDS011;5455;53.224;6.000;2023-02-15T06:35:41;25.23;;;15.63;;
10805;SDS011;5455;53.224;6.000;2023-02-15T06:38:07;25.83;;;17.50;;
10805;SDS011;5455;53.224;6.000;2023-02-15T06:40:34;23.43;;;16.27;;
10805;SDS011;5455;53.224;6.000;2023-02-15T06:43:01;22.87;;;16.67;;
10805;SDS011;5455;53.224;6.000;2023-02-15T06:45:28;23.87;;;16.70;;
10805;SDS011;5455;53.224;6.000;2023-02-15T06:47:55;23.53;;;16.50;;
10805;SDS011;5455;53.224;6.000;2023-02-15T06:50:22;22.17;;;16.20;;
10805;SDS011;5455;53.224;6.000;2023-02-15T06:52:52;24.07;;;16.23;;
10805;SDS011;5455;53.224;6.000;2023-02-15T06:55:22;24.13;;;16.63;;
10805;SDS011;5455;53.224;6.000;2023-02-15T06:57:49;24.43;;;15.63;;
10805;SDS011;5455;53.224;6.000;2023-02-15T07:00:16;25.27;;;17.50;;
10805;SDS011;5455;53.224;6.000;2023-02-15T07:02:44;21.73;;;15.27;;
10805;SDS011;5455;53.224;6.000;2023-02-15T07:05:11;21.17;;;14.13;;
10805;SDS011;5455;53.224;6.000;2023-02-15T07:07:38;23.50;;;16.40;;
10805;SDS011;5455;53.224;6.000;2023-02-15T07:10:05;24.40;;;16.07;;
10805;SDS011;5455;53.224;6.000;2023-02-15T07:12:33;24.00;;;16.03;;
10805;SDS011;5455;53.224;6.000;2023-02-15T07:15:10;23.37;;;16.20;;
10805;SDS011;5455;53.224;6.000;2023-02-15T07:17:38;23.20;;;16.43;;
10805;SDS011;5455;53.224;6.000;2023-02-15T07:20:26;20.90;;;15.30;;
10805;SDS011;5455;53.224;6.000;2023-02-15T07:22:53;26.67;;;16.23;;
10805;SDS011;5455;53.224;6.000;2023-02-15T07:25:20;26.80;;;15.60;;
10805;SDS011;5455;53.224;6.000;2023-02-15T07:27:47;26.17;;;16.77;;
10805;SDS011;5455;53.224;6.000;2023-02-15T07:30:15;24.73;;;16.40;;
10805;SDS011;5455;53.224;6.000;2023-02-15T07:32:43;25.93;;;16.90;;
10805;SDS011;5455;53.224;6.000;2023-02-15T07:35:31;24.07;;;17.37;;
10805;SDS011;5455;53.224;6.000;2023-02-15T07:37:59;29.13;;;19.13;;
10805;SDS011;5455;53.224;6.000;2023-02-15T07:40:26;29.47;;;19.57;;
10805;SDS011;5455;53.224;6.000;2023-02-15T07:42:53;30.07;;;19.47;;
10805;SDS011;5455;53.224;6.000;2023-02-15T07:45:23;26.33;;;18.70;;
10805;SDS011;5455;53.224;6.000;2023-02-15T07:47:50;32.33;;;21.30;;
10805;SDS011;5455;53.224;6.000;2023-02-15T07:50:17;34.63;;;21.90;;
10805;SDS011;5455;53.224;6.000;2023-02-15T07:52:44;27.63;;;19.27;;
10805;SDS011;5455;53.224;6.000;2023-02-15T07:55:11;30.50;;;19.90;;
10805;SDS011;5455;53.224;6.000;2023-02-15T07:57:46;30.97;;;19.00;;
10805;SDS011;5455;53.224;6.000;2023-02-15T08:00:15;26.17;;;16.63;;
10805;SDS011;5455;53.224;6.000;2023-02-15T08:02:48;28.70;;;18.47;;
10805;SDS011;5455;53.224;6.000;2023-02-15T08:05:36;24.93;;;16.43;;
10805;SDS011;5455;53.224;6.000;2023-02-15T08:08:03;27.00;;;16.93;;
10805;SDS011;5455;53.224;6.000;2023-02-15T08:10:31;26.27;;;17.70;;
10805;SDS011;5455;53.224;6.000;2023-02-15T08:13:16;27.23;;;17.37;;
10805;SDS011;5455;53.224;6.000;2023-02-15T08:15:49;25.50;;;16.67;;
10805;SDS011;5455;53.224;6.000;2023-02-15T08:18:17;25.53;;;17.07;;
10805;SDS011;5455;53.224;6.000;2023-02-15T08:20:48;23.90;;;16.10;;
10805;SDS011;5455;53.224;6.000;2023-02-15T08:23:16;25.03;;;16.13;;
10805;SDS011;5455;53.224;6.000;2023-02-15T08:25:43;25.17;;;16.07;;
10805;SDS011;5455;53.224;6.000;2023-02-15T08:28:10;24.00;;;17.63;;
10805;SDS011;5455;53.224;6.000;2023-02-15T08:30:37;29.13;;;17.37;;
10805;SDS011;5455;53.224;6.000;2023-02-15T08:33:04;27.67;;;17.83;;
10805;SDS011;5455;53.224;6.000;2023-02-15T08:35:31;23.40;;;16.50;;
10805;SDS011;5455;53.224;6.000;2023-02-15T08:37:58;26.03;;;15.87;;
10805;SDS011;5455;53.224;6.000;2023-02-15T08:40:25;25.57;;;15.83;;
10805;SDS011;5455;53.224;6.000;2023-02-15T08:42:52;22.90;;;15.10;;
10805;SDS011;5455;53.224;6.000;2023-02-15T08:45:19;21.97;;;14.27;;
10805;SDS011;5455;53.224;6.000;2023-02-15T08:47:46;24.00;;;16.27;;
10805;SDS011;5455;53.224;6.000;2023-02-15T08:50:12;24.70;;;18.10;;
10805;SDS011;5455;53.224;6.000;2023-02-15T08:52:39;26.40;;;18.67;;
10805;SDS011;5455;53.224;6.000;2023-02-15T08:55:06;28.97;;;19.43;;
10805;SDS011;5455;53.224;6.000;2023-02-15T08:57:33;27.87;;;18.80;;
10805;SDS011;5455;53.224;6.000;2023-02-15T09:00:00;27.93;;;18.77;;
10805;SDS011;5455;53.224;6.000;2023-02-15T09:02:30;27.20;;;18.10;;
10805;SDS011;5455;53.224;6.000;2023-02-15T09:04:57;28.27;;;17.57;;
10805;SDS011;5455;53.224;6.000;2023-02-15T09:07:24;22.77;;;16.03;;
10805;SDS011;5455;53.224;6.000;2023-02-15T09:09:51;21.93;;;16.00;;
10805;SDS011;5455;53.224;6.000;2023-02-15T09:12:20;24.37;;;14.70;;
10805;SDS011;5455;53.224;6.000;2023-02-15T09:14:47;22.20;;;15.23;;
10805;SDS011;5455;53.224;6.000;2023-02-15T09:17:13;22.57;;;15.13;;
10805;SDS011;5455;53.224;6.000;2023-02-15T09:19:41;24.37;;;14.93;;
10805;SDS011;5455;53.224;6.000;2023-02-15T09:22:08;23.07;;;15.53;;
10805;SDS011;5455;53.224;6.000;2023-02-15T09:24:35;22.57;;;14.37;;
10805;SDS011;5455;53.224;6.000;2023-02-15T09:27:02;24.57;;;13.80;;
10805;SDS011;5455;53.224;6.000;2023-02-15T09:29:29;23.37;;;14.37;;
10805;SDS011;5455;53.224;6.000;2023-02-15T09:31:56;23.27;;;13.90;;
10805;SDS011;5455;53.224;6.000;2023-02-15T09:34:24;23.80;;;14.87;;
10805;SDS011;5455;53.224;6.000;2023-02-15T09:36:51;22.60;;;12.93;;
10805;SDS011;5455;53.224;6.000;2023-02-15T09:39:19;23.70;;;14.60;;
10805;SDS011;5455;53.224;6.000;2023-02-15T09:52:36;25.97;;;15.73;;
10805;SDS011;5455;53.224;6.000;2023-02-15T09:55:29;25.03;;;16.17;;
10805;SDS011;5455;53.224;6.000;2023-02-15T09:58:09;23.83;;;14.40;;
10805;SDS011;5455;53.224;6.000;2023-02-15T10:01:08;25.13;;;15.53;;
10805;SDS011;5455;53.224;6.000;2023-02-15T10:06:31;29.67;;;16.13;;
10805;SDS011;5455;53.224;6.000;2023-02-15T10:09:17;27.43;;;16.53;;
10805;SDS011;5455;53.224;6.000;2023-02-15T10:12:15;29.10;;;17.87;;
10805;SDS011;5455;53.224;6.000;2023-02-15T10:17:37;25.37;;;14.27;;
10805;SDS011;5455;53.224;6.000;2023-02-15T10:22:48;27.77;;;16.90;;
10805;SDS011;5455;53.224;6.000;2023-02-15T10:34:18;27.40;;;15.97;;
10805;SDS011;5455;53.224;6.000;2023-02-15T10:45:19;27.90;;;16.90;;
10805;SDS011;5455;53.224;6.000;2023-02-15T11:01:46;31.17;;;17.57;;
10805;SDS011;5455;53.224;6.000;2023-02-15T11:06:44;25.87;;;15.63;;
10805;SDS011;5455;53.224;6.000;2023-02-15T11:09:19;26.07;;;16.27;;
10805;SDS011;5455;53.224;6.000;2023-02-15T11:11:49;32.70;;;17.40;;
10805;SDS011;5455;53.224;6.000;2023-02-15T11:14:24;26.77;;;16.53;;
10805;SDS011;5455;53.224;6.000;2023-02-15T11:17:02;29.10;;;17.57;;
10805;SDS011;5455;53.224;6.000;2023-02-15T11:19:36;29.93;;;18.00;;
10805;SDS011;5455;53.224;6.000;2023-02-15T11:22:09;32.87;;;18.10;;
10805;SDS011;5455;53.224;6.000;2023-02-15T11:24:45;30.47;;;17.73;;
10805;SDS011;5455;53.224;6.000;2023-02-15T11:27:23;28.30;;;16.53;;
10805;SDS011;5455;53.224;6.000;2023-02-15T11:30:05;30.43;;;17.20;;
10805;SDS011;5455;53.224;6.000;2023-02-15T11:32:45;33.70;;;17.90;;
10805;SDS011;5455;53.224;6.000;2023-02-15T11:40:25;31.00;;;17.23;;
10805;SDS011;5455;53.224;6.000;2023-02-15T11:42:55;28.97;;;14.93;;
10805;SDS011;5455;53.224;6.000;2023-02-15T11:45:27;27.37;;;15.63;;
10805;SDS011;5455;53.224;6.000;2023-02-15T11:47:56;25.17;;;15.57;;
10805;SDS011;5455;53.224;6.000;2023-02-15T11:50:28;22.97;;;12.83;;
10805;SDS011;5455;53.224;6.000;2023-02-15T11:53:02;31.47;;;16.87;;
10805;SDS011;5455;53.224;6.000;2023-02-15T11:55:31;28.97;;;15.70;;
10805;SDS011;5455;53.224;6.000;2023-02-15T11:58:21;28.33;;;15.50;;
10805;SDS011;5455;53.224;6.000;2023-02-15T12:01:13;30.87;;;17.93;;
10805;SDS011;5455;53.224;6.000;2023-02-15T12:03:47;31.00;;;16.60;;
10805;SDS011;5455;53.224;6.000;2023-02-15T12:06:29;30.03;;;18.77;;
10805;SDS011;5455;53.224;6.000;2023-02-15T12:09:02;33.90;;;18.27;;
10805;SDS011;5455;53.224;6.000;2023-02-15T12:11:34;33.30;;;18.30;;
10805;SDS011;5455;53.224;6.000;2023-02-15T12:14:09;32.47;;;18.07;;
10805;SDS011;5455;53.224;6.000;2023-02-15T12:16:53;32.17;;;19.10;;
10805;SDS011;5455;53.224;6.000;2023-02-15T12:22:03;35.77;;;20.13;;
10805;SDS011;5455;53.224;6.000;2023-02-15T12:24:36;35.23;;;18.97;;
10805;SDS011;5455;53.224;6.000;2023-02-15T12:27:05;33.23;;;18.40;;
10805;SDS011;5455;53.224;6.000;2023-02-15T12:29:42;32.50;;;17.10;;
10805;SDS011;5455;53.224;6.000;2023-02-15T12:32:18;34.20;;;18.40;;
10805;SDS011;5455;53.224;6.000;2023-02-15T12:34:50;30.47;;;16.23;;
10805;SDS011;5455;53.224;6.000;2023-02-15T12:37:21;32.47;;;18.27;;
10805;SDS011;5455;53.224;6.000;2023-02-15T12:39:57;32.13;;;17.73;;
10805;SDS011;5455;53.224;6.000;2023-02-15T12:42:27;30.93;;;18.30;;
10805;SDS011;5455;53.224;6.000;2023-02-15T12:45:20;30.47;;;16.77;;
10805;SDS011;5455;53.224;6.000;2023-02-15T12:50:42;26.97;;;14.93;;
10805;SDS011;5455;53.224;6.000;2023-02-15T12:53:30;30.77;;;16.97;;
10805;SDS011;5455;53.224;6.000;2023-02-15T12:56:01;30.90;;;16.93;;
10805;SDS011;5455;53.224;6.000;2023-02-15T12:58:33;34.93;;;18.40;;
10805;SDS011;5455;53.224;6.000;2023-02-15T13:06:30;32.57;;;18.00;;
10805;SDS011;5455;53.224;6.000;2023-02-15T13:11:46;33.70;;;18.70;;
10805;SDS011;5455;53.224;6.000;2023-02-15T13:14:17;30.83;;;17.63;;
10805;SDS011;5455;53.224;6.000;2023-02-15T13:16:48;27.97;;;16.07;;
10805;SDS011;5455;53.224;6.000;2023-02-15T13:19:18;30.10;;;17.07;;
10805;SDS011;5455;53.224;6.000;2023-02-15T13:21:50;31.10;;;18.20;;
10805;SDS011;5455;53.224;6.000;2023-02-15T13:26:54;30.60;;;17.13;;
10805;SDS011;5455;53.224;6.000;2023-02-15T13:29:41;31.60;;;16.63;;
10805;SDS011;5455;53.224;6.000;2023-02-15T13:35:00;29.00;;;16.80;;
10805;SDS011;5455;53.224;6.000;2023-02-15T13:37:37;30.03;;;16.10;;
10805;SDS011;5455;53.224;6.000;2023-02-15T13:40:15;27.17;;;16.40;;
10805;SDS011;5455;53.224;6.000;2023-02-15T13:45:33;28.67;;;16.53;;
10805;SDS011;5455;53.224;6.000;2023-02-15T13:50:44;29.17;;;17.63;;
10805;SDS011;5455;53.224;6.000;2023-02-15T14:07:25;32.60;;;18.27;;
10805;SDS011;5455;53.224;6.000;2023-02-15T14:10:19;36.07;;;19.30;;
10805;SDS011;5455;53.224;6.000;2023-02-15T14:13:17;27.20;;;15.70;;
10805;SDS011;5455;53.224;6.000;2023-02-15T14:16:51;28.47;;;16.27;;
10805;SDS011;5455;53.224;6.000;2023-02-15T14:26:55;27.10;;;16.00;;
10805;SDS011;5455;53.224;6.000;2023-02-15T14:32:35;25.23;;;16.23;;
10805;SDS011;5455;53.224;6.000;2023-02-15T14:35:18;28.07;;;16.90;;
10805;SDS011;5455;53.224;6.000;2023-02-15T14:41:03;27.77;;;16.33;;
10805;SDS011;5455;53.224;6.000;2023-02-15T14:56:44;26.63;;;16.67;;
10805;SDS011;5455;53.224;6.000;2023-02-15T15:02:00;28.73;;;16.07;;
10805;SDS011;5455;53.224;6.000;2023-02-15T15:04:37;26.93;;;16.27;;
10805;SDS011;5455;53.224;6.000;2023-02-15T15:07:21;27.63;;;16.00;;
10805;SDS011;5455;53.224;6.000;2023-02-15T15:09:59;29.30;;;16.03;;
10805;SDS011;5455;53.224;6.000;2023-02-15T15:15:01;29.20;;;15.63;;
10805;SDS011;5455;53.224;6.000;2023-02-15T15:20:14;27.70;;;16.30;;
10805;SDS011;5455;53.224;6.000;2023-02-15T15:25:47;30.93;;;15.80;;
10805;SDS011;5455;53.224;6.000;2023-02-15T15:31:02;28.60;;;16.77;;
10805;SDS011;5455;53.224;6.000;2023-02-15T15:42:31;30.27;;;16.13;;
10805;SDS011;5455;53.224;6.000;2023-02-15T15:50:52;27.03;;;15.37;;
10805;SDS011;5455;53.224;6.000;2023-02-15T15:53:24;29.67;;;16.70;;
10805;SDS011;5455;53.224;6.000;2023-02-15T15:55:55;28.37;;;16.67;;
10805;SDS011;5455;53.224;6.000;2023-02-15T15:58:27;30.57;;;18.33;;
10805;SDS011;5455;53.224;6.000;2023-02-15T16:01:07;30.13;;;17.03;;
10805;SDS011;5455;53.224;6.000;2023-02-15T16:03:38;31.10;;;18.20;;
10805;SDS011;5455;53.224;6.000;2023-02-15T16:06:05;29.40;;;17.40;;
10805;SDS011;5455;53.224;6.000;2023-02-15T16:08:36;32.43;;;17.40;;
10805;SDS011;5455;53.224;6.000;2023-02-15T16:11:12;29.17;;;16.87;;
10805;SDS011;5455;53.224;6.000;2023-02-15T16:13:43;31.10;;;17.90;;
10805;SDS011;5455;53.224;6.000;2023-02-15T16:16:19;32.67;;;17.60;;
10805;SDS011;5455;53.224;6.000;2023-02-15T16:18:51;28.83;;;17.80;;
10805;SDS011;5455;53.224;6.000;2023-02-15T16:21:22;27.97;;;17.37;;
10805;SDS011;5455;53.224;6.000;2023-02-15T16:29:32;31.33;;;18.00;;
10805;SDS011;5455;53.224;6.000;2023-02-15T16:32:01;32.07;;;18.30;;
10805;SDS011;5455;53.224;6.000;2023-02-15T16:34:28;27.40;;;17.03;;
10805;SDS011;5455;53.224;6.000;2023-02-15T16:37:14;31.90;;;18.33;;
10805;SDS011;5455;53.224;6.000;2023-02-15T16:39:43;29.20;;;18.63;;
10805;SDS011;5455;53.224;6.000;2023-02-15T16:42:11;31.07;;;19.17;;
10805;SDS011;5455;53.224;6.000;2023-02-15T16:44:41;29.63;;;17.53;;
10805;SDS011;5455;53.224;6.000;2023-02-15T16:47:12;29.57;;;17.77;;
10805;SDS011;5455;53.224;6.000;2023-02-15T16:49:48;30.03;;;18.07;;
10805;SDS011;5455;53.224;6.000;2023-02-15T16:52:24;31.47;;;18.33;;
10805;SDS011;5455;53.224;6.000;2023-02-15T16:54:54;29.30;;;18.43;;
10805;SDS011;5455;53.224;6.000;2023-02-15T16:57:26;31.20;;;19.50;;
10805;SDS011;5455;53.224;6.000;2023-02-15T17:00:02;33.63;;;19.07;;
10805;SDS011;5455;53.224;6.000;2023-02-15T17:02:32;29.27;;;18.33;;
10805;SDS011;5455;53.224;6.000;2023-02-15T17:05:20;34.40;;;18.93;;
10805;SDS011;5455;53.224;6.000;2023-02-15T17:08:03;31.63;;;19.77;;
10805;SDS011;5455;53.224;6.000;2023-02-15T17:13:26;28.80;;;18.83;;
10805;SDS011;5455;53.224;6.000;2023-02-15T17:18:51;32.40;;;19.53;;
10805;SDS011;5455;53.224;6.000;2023-02-15T17:21:23;32.83;;;19.97;;
10805;SDS011;5455;53.224;6.000;2023-02-15T17:23:57;32.23;;;20.50;;
10805;SDS011;5455;53.224;6.000;2023-02-15T17:26:28;30.70;;;18.37;;
10805;SDS011;5455;53.224;6.000;2023-02-15T17:29:12;33.87;;;20.20;;
10805;SDS011;5455;53.224;6.000;2023-02-15T17:32:03;30.80;;;19.07;;
10805;SDS011;5455;53.224;6.000;2023-02-15T17:42:44;34.23;;;20.97;;
10805;SDS011;5455;53.224;6.000;2023-02-15T17:45:11;32.93;;;20.03;;
10805;SDS011;5455;53.224;6.000;2023-02-15T17:47:41;30.93;;;19.83;;
10805;SDS011;5455;53.224;6.000;2023-02-15T17:50:15;30.37;;;19.37;;
10805;SDS011;5455;53.224;6.000;2023-02-15T17:52:47;33.67;;;20.10;;
10805;SDS011;5455;53.224;6.000;2023-02-15T17:55:15;33.37;;;19.90;;
10805;SDS011;5455;53.224;6.000;2023-02-15T17:58:11;33.00;;;20.97;;
10805;SDS011;5455;53.224;6.000;2023-02-15T18:00:43;36.37;;;20.87;;
10805;SDS011;5455;53.224;6.000;2023-02-15T18:03:39;36.87;;;21.23;;
10805;SDS011;5455;53.224;6.000;2023-02-15T18:06:25;32.13;;;20.07;;
10805;SDS011;5455;53.224;6.000;2023-02-15T18:09:11;30.23;;;19.40;;
10805;SDS011;5455;53.224;6.000;2023-02-15T18:12:02;36.50;;;21.33;;
10805;SDS011;5455;53.224;6.000;2023-02-15T18:14:39;32.23;;;21.70;;
10805;SDS011;5455;53.224;6.000;2023-02-15T18:17:08;34.90;;;21.00;;
10805;SDS011;5455;53.224;6.000;2023-02-15T18:19:39;35.10;;;21.37;;
10805;SDS011;5455;53.224;6.000;2023-02-15T18:22:09;37.37;;;22.07;;
10805;SDS011;5455;53.224;6.000;2023-02-15T18:24:37;34.37;;;20.83;;
10805;SDS011;5455;53.224;6.000;2023-02-15T18:27:04;32.20;;;20.40;;
10805;SDS011;5455;53.224;6.000;2023-02-15T18:29:32;32.80;;;21.17;;
10805;SDS011;5455;53.224;6.000;2023-02-15T18:31:59;32.77;;;21.10;;